< < Back
Terminal Aerodrome Forecast


Current Version              Previous Versions:   1  2  3  4  5  6  7  8  9  

Terminal Aerodrome Forecast

463
FTUS42 KTAE 282300
TAFVLD
TAF
KVLD 282320Z 2900/2924 VRB03KT P6SM SKC
     FM291600 16006KT P6SM SCT250=

Latest METAR

689
SAUS70 KWBC 290400 RRD
MTRVLD
METAR KVLD 290353Z AUTO 00000KT 10SM CLR 02/00 A3032 RMK AO2 SLP276
T00220000 TSNO


USA.gov is the U.S. government's official web portal to all federal, state and local government web resources and services.